createdAt,value
2023-03-31T00:01:33.918Z,11.80
2023-03-31T00:06:41.884Z,11.70
2023-03-31T00:11:43.550Z,11.70
2023-03-31T00:16:45.880Z,11.70
2023-03-31T00:21:48.390Z,11.70
2023-03-31T00:26:49.991Z,11.70
2023-03-31T00:31:51.614Z,11.70
2023-03-31T00:36:56.495Z,11.70
2023-03-31T00:41:58.724Z,11.70
2023-03-31T00:47:10.386Z,11.70
2023-03-31T00:52:22.773Z,11.70
2023-03-31T00:57:25.130Z,11.70
2023-03-31T01:02:27.809Z,11.80
2023-03-31T01:07:49.665Z,11.90
2023-03-31T01:12:54.110Z,11.70
2023-03-31T01:17:57.569Z,11.70
2023-03-31T01:23:18.180Z,11.80
2023-03-31T01:28:19.728Z,11.80
2023-03-31T01:33:21.356Z,11.80
2023-03-31T01:38:33.869Z,11.90
2023-03-31T01:43:41.117Z,11.90
2023-03-31T01:48:59.419Z,11.90
2023-03-31T01:54:07.149Z,12.00
2023-03-31T01:59:13.726Z,12.00
2023-03-31T02:04:23.399Z,12.00
2023-03-31T02:09:28.603Z,12.10
2023-03-31T02:14:31.286Z,12.00
2023-03-31T02:19:34.994Z,12.00
2023-03-31T02:24:38.185Z,11.90
2023-03-31T02:29:39.787Z,11.90
2023-03-31T02:34:41.523Z,11.90
2023-03-31T02:39:44.792Z,11.80
2023-03-31T02:44:46.524Z,11.80
2023-03-31T02:49:49.591Z,11.80
2023-03-31T02:54:57.495Z,11.80
2023-03-31T03:00:17.165Z,11.70
2023-03-31T03:05:37.608Z,11.70
2023-03-31T03:11:11.140Z,11.70
2023-03-31T03:16:24.873Z,11.70
2023-03-31T03:21:26.880Z,11.70
2023-03-31T03:26:28.758Z,11.70
2023-03-31T03:31:30.919Z,11.70
2023-03-31T03:36:33.001Z,11.70
2023-03-31T03:41:34.914Z,11.70
2023-03-31T03:46:36.561Z,11.70
2023-03-31T03:51:38.155Z,11.70
2023-03-31T03:56:39.809Z,11.60
2023-03-31T04:01:41.572Z,11.60
2023-03-31T04:06:43.309Z,11.60
2023-03-31T04:11:44.922Z,11.60
2023-03-31T04:16:46.895Z,11.60
2023-03-31T04:21:50.821Z,11.60
2023-03-31T04:26:52.417Z,11.60
2023-03-31T04:31:58.723Z,11.50
2023-03-31T04:37:02.584Z,11.30
2023-03-31T04:42:04.196Z,11.30
2023-03-31T04:47:06.959Z,11.20
2023-03-31T04:52:08.622Z,11.20
2023-03-31T04:57:10.464Z,11.20
2023-03-31T05:02:12.301Z,11.10
2023-03-31T05:07:13.901Z,11.10
2023-03-31T05:12:15.590Z,11.20
2023-03-31T05:17:17.957Z,11.10
2023-03-31T05:22:20.764Z,11.10
2023-03-31T05:27:22.389Z,11.30
2023-03-31T05:32:24.269Z,11.40
2023-03-31T05:37:27.085Z,11.30
2023-03-31T05:42:28.820Z,11.40
2023-03-31T05:47:30.679Z,11.50
2023-03-31T05:52:32.898Z,11.10
2023-03-31T05:57:34.504Z,10.90
2023-03-31T06:02:36.530Z,10.80
2023-03-31T06:07:38.189Z,10.70
2023-03-31T06:12:39.775Z,10.70
2023-03-31T06:17:41.461Z,10.60
2023-03-31T06:22:43.130Z,10.60
2023-03-31T06:27:44.719Z,10.60
2023-03-31T06:32:46.371Z,10.60
2023-03-31T06:37:48.055Z,10.70
2023-03-31T06:42:49.674Z,10.70
2023-03-31T06:47:51.553Z,10.70
2023-03-31T06:52:55.080Z,10.70
2023-03-31T06:57:56.667Z,10.70
2023-03-31T07:02:58.370Z,10.70
2023-03-31T07:08:00.763Z,10.70
2023-03-31T07:13:04.411Z,10.70
2023-03-31T07:18:07.222Z,10.80
2023-03-31T07:23:09.162Z,11.00
2023-03-31T07:28:11.000Z,11.10
2023-03-31T07:33:12.845Z,11.30
2023-03-31T07:38:14.594Z,11.40
2023-03-31T07:43:16.197Z,11.60
2023-03-31T07:48:17.802Z,11.80
2023-03-31T07:53:19.501Z,11.90
2023-03-31T07:58:21.113Z,12.10
2023-03-31T08:03:22.659Z,12.20
2023-03-31T08:08:24.319Z,12.50
2023-03-31T08:13:26.027Z,12.60
2023-03-31T08:18:27.582Z,12.80
2023-03-31T08:23:29.178Z,12.90
2023-03-31T08:28:30.993Z,13.00
2023-03-31T08:33:33.044Z,13.10
2023-03-31T08:38:35.302Z,13.10
2023-03-31T08:43:40.669Z,13.20
2023-03-31T08:48:48.747Z,13.30
2023-03-31T08:53:59.164Z,13.30
2023-03-31T08:59:02.730Z,13.40
2023-03-31T09:04:08.840Z,13.60
2023-03-31T09:09:32.862Z,13.90
2023-03-31T09:14:34.431Z,14.20
2023-03-31T09:19:45.497Z,15.00
2023-03-31T09:24:52.863Z,15.00
2023-03-31T09:29:59.971Z,15.00
2023-03-31T09:35:03.104Z,14.90
2023-03-31T09:40:09.118Z,14.70
2023-03-31T09:45:15.472Z,14.60
2023-03-31T09:50:17.658Z,14.40
2023-03-31T09:55:32.068Z,14.20
2023-03-31T10:00:41.759Z,13.80
2023-03-31T10:05:51.156Z,13.80
2023-03-31T10:10:52.834Z,13.70
2023-03-31T10:16:05.027Z,13.60
2023-03-31T10:21:07.895Z,13.90
2023-03-31T10:26:13.327Z,14.10
2023-03-31T10:31:15.322Z,14.00
2023-03-31T10:36:20.183Z,14.10
2023-03-31T10:41:23.735Z,14.60
2023-03-31T10:46:40.079Z,14.90
2023-03-31T10:51:48.860Z,14.70
2023-03-31T10:57:03.247Z,14.30
2023-03-31T11:02:08.012Z,14.50
2023-03-31T11:07:21.993Z,14.90
2023-03-31T11:12:44.614Z,15.50
2023-03-31T11:17:49.074Z,15.70
2023-03-31T11:23:09.448Z,15.70
2023-03-31T11:28:10.968Z,15.50
2023-03-31T11:33:34.319Z,15.50
2023-03-31T11:38:36.094Z,15.40
2023-03-31T11:43:45.942Z,15.40
2023-03-31T11:49:02.817Z,15.30
2023-03-31T11:54:11.952Z,15.30
2023-03-31T11:59:16.005Z,15.20
2023-03-31T12:04:29.372Z,14.80
2023-03-31T12:09:51.998Z,13.70
2023-03-31T12:14:57.448Z,12.90
2023-03-31T12:20:10.656Z,12.40
2023-03-31T12:25:16.279Z,12.10
2023-03-31T12:30:21.596Z,12.10
2023-03-31T12:35:29.559Z,12.10
2023-03-31T12:40:43.102Z,12.40
2023-03-31T12:45:56.301Z,12.60
2023-03-31T12:51:10.489Z,12.60
2023-03-31T12:56:12.133Z,12.80
2023-03-31T13:01:14.960Z,13.00
2023-03-31T13:06:25.901Z,13.20
2023-03-31T13:11:33.896Z,13.70
2023-03-31T13:16:36.346Z,13.90
2023-03-31T13:21:57.205Z,14.00
2023-03-31T13:27:18.751Z,13.80
2023-03-31T13:32:25.691Z,13.40
2023-03-31T13:37:33.352Z,13.20
2023-03-31T13:42:50.349Z,13.40
2023-03-31T13:48:07.286Z,13.60
2023-03-31T13:53:29.416Z,13.70
2023-03-31T13:58:52.278Z,13.80
2023-03-31T14:04:12.265Z,13.90
2023-03-31T14:09:25.360Z,14.10
2023-03-31T14:14:27.931Z,14.20
2023-03-31T14:19:29.535Z,14.20
2023-03-31T14:24:38.853Z,14.00
2023-03-31T14:29:44.548Z,13.40
2023-03-31T14:34:49.252Z,13.60
2023-03-31T14:39:52.825Z,13.70
2023-03-31T14:44:58.386Z,13.90
2023-03-31T14:50:01.425Z,13.90
2023-03-31T14:55:03.190Z,13.90
2023-03-31T15:00:08.242Z,13.90
2023-03-31T15:05:18.784Z,14.00
2023-03-31T15:10:21.363Z,13.90
2023-03-31T15:15:23.028Z,13.90
2023-03-31T15:20:44.942Z,14.00
2023-03-31T15:25:46.879Z,14.10
2023-03-31T15:30:52.218Z,14.30
2023-03-31T15:36:01.557Z,14.30
2023-03-31T15:41:03.889Z,14.40
2023-03-31T15:46:05.713Z,14.40
2023-03-31T15:51:16.628Z,14.40
2023-03-31T15:56:27.895Z,14.30
2023-03-31T16:01:38.910Z,14.30
2023-03-31T16:06:53.196Z,14.20
2023-03-31T16:11:56.817Z,14.20
2023-03-31T16:17:02.920Z,14.20
2023-03-31T16:22:04.905Z,14.20
2023-03-31T16:27:07.808Z,14.20
2023-03-31T16:32:13.500Z,14.10
2023-03-31T16:37:15.143Z,14.00
2023-03-31T16:42:16.880Z,13.90
2023-03-31T16:47:31.619Z,13.80
2023-03-31T16:52:36.929Z,13.80
2023-03-31T16:57:38.729Z,13.70
2023-03-31T17:02:40.405Z,13.70
2023-03-31T17:07:42.153Z,13.80
2023-03-31T17:12:43.739Z,13.70
2023-03-31T17:17:46.334Z,13.60
2023-03-31T17:22:48.284Z,13.60
2023-03-31T17:27:50.118Z,13.60
2023-03-31T17:32:52.425Z,13.60
2023-03-31T17:37:54.388Z,13.50
2023-03-31T17:42:56.195Z,13.50
2023-03-31T17:47:58.394Z,13.40
2023-03-31T17:53:00.156Z,13.30
2023-03-31T17:58:02.387Z,13.20
2023-03-31T18:03:04.359Z,13.10
2023-03-31T18:08:06.179Z,13.00
2023-03-31T18:13:07.842Z,13.00
2023-03-31T18:18:09.505Z,13.00
2023-03-31T18:23:11.976Z,13.10
2023-03-31T18:28:17.251Z,12.90
2023-03-31T18:33:20.086Z,13.00
2023-03-31T18:38:21.991Z,12.70
2023-03-31T18:43:24.672Z,12.70
2023-03-31T18:48:26.673Z,12.60
2023-03-31T18:53:28.559Z,12.60
2023-03-31T18:58:31.439Z,12.40
2023-03-31T19:03:33.219Z,12.40
2023-03-31T19:08:34.882Z,12.40
2023-03-31T19:13:37.021Z,12.30
2023-03-31T19:18:39.063Z,12.40
2023-03-31T19:23:40.947Z,12.40
2023-03-31T19:28:42.544Z,12.30
2023-03-31T19:33:44.145Z,12.30
2023-03-31T19:38:46.052Z,12.40
2023-03-31T19:43:47.970Z,12.20
2023-03-31T19:48:49.609Z,12.10
2023-03-31T19:53:52.027Z,12.10
2023-03-31T19:58:54.113Z,12.00
2023-03-31T20:03:56.326Z,12.00
2023-03-31T20:08:59.493Z,11.90
2023-03-31T20:14:01.925Z,11.80
2023-03-31T20:19:05.250Z,11.70
2023-03-31T20:24:07.151Z,11.70
2023-03-31T20:29:09.713Z,11.70
2023-03-31T20:34:15.174Z,11.60
2023-03-31T20:39:17.537Z,11.70
2023-03-31T20:44:19.397Z,11.70
2023-03-31T20:49:21.038Z,11.80
2023-03-31T20:54:22.797Z,11.70
2023-03-31T20:59:25.305Z,11.70
2023-03-31T21:04:28.041Z,11.70
2023-03-31T21:09:29.895Z,11.90
2023-03-31T21:14:32.032Z,11.90
2023-03-31T21:19:33.749Z,11.80
2023-03-31T21:24:35.698Z,11.80
2023-03-31T21:29:37.365Z,11.80
2023-03-31T21:34:39.115Z,11.80
2023-03-31T21:39:40.752Z,11.80
2023-03-31T21:44:42.577Z,11.80
2023-03-31T21:49:44.167Z,11.70
2023-03-31T21:54:45.898Z,11.60
2023-03-31T21:59:47.652Z,11.70
2023-03-31T22:04:49.350Z,11.70
2023-03-31T22:09:51.443Z,11.60
2023-03-31T22:14:53.087Z,11.60
2023-03-31T22:19:55.218Z,11.60
2023-03-31T22:24:56.821Z,11.60
2023-03-31T22:29:58.478Z,11.60
2023-03-31T22:35:01.380Z,11.60
2023-03-31T22:40:03.155Z,11.60
2023-03-31T22:45:05.143Z,11.60
2023-03-31T22:50:07.211Z,11.60
2023-03-31T22:55:08.990Z,11.60
2023-03-31T23:00:11.090Z,11.60
2023-03-31T23:05:12.707Z,11.60
2023-03-31T23:10:14.307Z,11.60
2023-03-31T23:15:16.222Z,11.50
2023-03-31T23:20:18.135Z,11.40
2023-03-31T23:25:19.957Z,11.40
2023-03-31T23:30:21.585Z,11.40
2023-03-31T23:35:23.500Z,11.40
2023-03-31T23:40:25.106Z,11.30
2023-03-31T23:45:27.144Z,11.30
2023-03-31T23:50:28.765Z,11.40
2023-03-31T23:55:31.149Z,11.30
